Centralia, Washington
Current Conditions -  °F | °C
As of 11:15 AM on Thursday 23 Oct 2014 (Local Time) from KCLS Reporting Station
Scattered Clouds Scattered Clouds  
Wind Chill: 12°   Ceiling: Unl
Heat Index: 12°   Visibility: 10mi
Dew Point: 10°   Wind: 6mph
Humidity: 88%   Direction: 170°S
Pressure: 29.83"   Gusts: NA
Location:  46.73°N, 122.95°W
Report Text: KCLS 231815Z AUTO 17005KT 10SM FEW045 FEW055 SCT065 12/10 A2983 RMK AO2
Loading
Personal Weather Stations






























Interactive Weather Map
Tropical Storm Tracking
New forecast layout! Learn more

10-Day Weather Forecast

Advertisements
Track Severe Weather on mobile